createdAt,value
2022-12-09T10:02:35.365Z,3.83
2022-12-09T10:05:23.259Z,10.13
2022-12-09T10:08:27.230Z,6.63
2022-12-09T10:11:14.037Z,5.20
2022-12-09T10:13:52.671Z,6.30
2022-12-09T10:19:30.050Z,8.03
2022-12-09T10:35:15.902Z,7.90
2022-12-09T10:41:23.128Z,8.20
2022-12-09T10:47:18.626Z,11.23
2022-12-09T10:50:06.954Z,6.50
2022-12-09T10:52:46.758Z,4.80
2022-12-09T10:55:28.012Z,3.43
2022-12-09T10:58:13.133Z,6.90
2022-12-09T11:00:47.921Z,6.07
2022-12-09T11:03:29.746Z,4.50
2022-12-09T11:06:17.404Z,3.63
2022-12-09T11:09:12.045Z,5.53
2022-12-09T11:12:05.022Z,1.63
2022-12-09T11:14:59.849Z,2.30
2022-12-09T11:18:01.683Z,4.10
2022-12-09T11:20:32.721Z,3.83
2022-12-09T11:23:17.128Z,2.13
2022-12-09T11:26:11.662Z,2.60
2022-12-09T11:29:04.741Z,3.30
2022-12-09T11:34:39.008Z,1.70
2022-12-09T11:37:25.469Z,2.17
2022-12-09T11:39:59.176Z,2.73
2022-12-09T11:42:36.966Z,5.13
2022-12-09T11:45:14.277Z,5.13
2022-12-09T11:48:25.686Z,3.53
2022-12-09T11:50:55.702Z,3.50
2022-12-09T11:53:39.857Z,2.93
2022-12-09T11:56:15.658Z,3.60
2022-12-09T11:59:02.593Z,4.70
2022-12-09T12:04:53.197Z,2.80
2022-12-09T12:07:30.125Z,3.20
2022-12-09T12:13:04.396Z,4.40
2022-12-09T12:15:39.469Z,3.80
2022-12-09T12:18:14.008Z,2.33
2022-12-09T12:20:52.062Z,3.47
2022-12-09T12:23:38.014Z,3.20
2022-12-09T12:26:10.260Z,2.67
2022-12-09T12:29:05.487Z,3.37
2022-12-09T12:31:51.735Z,5.10
2022-12-09T12:34:26.836Z,3.43
2022-12-09T12:37:02.180Z,3.87
2022-12-09T12:39:39.130Z,3.53
2022-12-09T12:42:13.948Z,3.80
2022-12-09T12:45:05.380Z,2.97
2022-12-09T12:47:40.875Z,5.73
2022-12-09T12:50:14.338Z,4.83
2022-12-09T12:52:56.088Z,7.40
2022-12-09T12:55:34.797Z,6.60
2022-12-09T12:58:10.215Z,4.83
2022-12-09T13:00:45.540Z,5.33
2022-12-09T13:03:21.860Z,4.63
2022-12-09T13:05:54.544Z,5.07
2022-12-09T13:08:29.361Z,4.50
2022-12-09T13:11:01.806Z,7.23
2022-12-09T13:13:35.002Z,6.40
2022-12-09T13:16:09.864Z,5.23
2022-12-09T13:18:43.219Z,3.00
2022-12-09T13:21:13.345Z,5.17
2022-12-09T13:23:49.974Z,5.57
2022-12-09T13:26:26.600Z,5.57
2022-12-09T13:29:01.291Z,5.33
2022-12-09T13:31:32.319Z,5.73
2022-12-09T13:34:09.503Z,4.27
2022-12-09T13:36:41.190Z,8.37
2022-12-09T13:39:16.103Z,4.03
2022-12-09T13:42:05.147Z,3.07
2022-12-09T13:44:37.478Z,3.00
2022-12-09T13:47:38.204Z,4.27
2022-12-09T13:50:10.793Z,5.10
2022-12-09T13:52:49.906Z,3.40
2022-12-09T13:55:36.904Z,3.30
2022-12-09T13:58:25.911Z,8.23
2022-12-09T14:01:07.988Z,7.13
2022-12-09T14:03:40.411Z,8.43
2022-12-09T14:06:23.807Z,4.93
2022-12-09T14:08:57.385Z,4.90
2022-12-09T14:11:54.238Z,6.43
2022-12-09T14:14:59.906Z,4.90
2022-12-09T14:18:02.312Z,4.43
2022-12-09T14:20:41.223Z,6.73
2022-12-09T14:23:17.405Z,3.53
2022-12-09T14:26:04.342Z,6.33
2022-12-09T14:29:06.083Z,5.47
2022-12-09T14:31:59.450Z,4.40
2022-12-09T14:34:39.541Z,4.70
2022-12-09T14:37:22.293Z,5.33
2022-12-09T14:39:59.869Z,5.47
2022-12-09T14:42:38.278Z,4.80
2022-12-09T14:45:21.013Z,7.10
2022-12-09T14:47:52.421Z,3.80
2022-12-09T14:50:28.958Z,6.37
2022-12-09T14:53:00.693Z,4.00
2022-12-09T14:55:32.558Z,5.60
2022-12-09T14:58:07.341Z,7.70
2022-12-09T15:00:40.317Z,7.90
2022-12-09T15:03:45.258Z,4.57
2022-12-09T15:06:19.091Z,7.70
2022-12-09T15:08:55.578Z,5.30
2022-12-09T15:11:28.079Z,6.43
2022-12-09T15:14:19.084Z,5.37
2022-12-09T15:16:50.657Z,5.20
2022-12-09T15:19:51.063Z,5.00
2022-12-09T15:22:21.201Z,4.10
2022-12-09T15:24:51.104Z,9.53
2022-12-09T15:27:22.306Z,6.03
2022-12-09T15:29:54.235Z,6.00
2022-12-09T15:38:23.215Z,6.53
2022-12-09T15:41:12.103Z,6.37
2022-12-09T15:43:43.524Z,5.83
2022-12-09T15:46:21.994Z,9.10
2022-12-09T15:48:52.941Z,6.37
2022-12-09T15:51:27.982Z,5.13
2022-12-09T15:54:05.212Z,7.70
2022-12-09T15:56:43.304Z,5.97
2022-12-09T15:59:22.485Z,6.53
2022-12-09T16:01:59.508Z,5.03
2022-12-09T16:04:32.162Z,5.60
2022-12-09T16:07:09.491Z,5.70
2022-12-09T16:09:46.793Z,5.87
2022-12-09T16:12:32.944Z,4.57
2022-12-09T16:15:02.791Z,7.70
2022-12-09T16:17:46.238Z,5.47
2022-12-09T16:20:35.980Z,7.00
2022-12-09T16:23:07.504Z,7.37
2022-12-09T16:25:44.344Z,7.77
2022-12-09T16:28:29.395Z,5.30
2022-12-09T16:31:05.498Z,7.00
2022-12-09T16:33:40.346Z,5.80
2022-12-09T16:36:17.983Z,5.80
2022-12-09T16:39:22.583Z,7.07
2022-12-09T16:42:03.905Z,7.63
2022-12-09T16:44:35.625Z,5.50
2022-12-09T16:47:15.084Z,7.23
2022-12-09T16:49:48.235Z,6.57
2022-12-09T16:52:22.360Z,4.67
2022-12-09T16:54:52.153Z,9.77
2022-12-09T16:57:30.691Z,8.60
2022-12-09T16:59:59.739Z,8.57
2022-12-09T17:05:28.897Z,4.87
2022-12-09T17:07:58.232Z,8.83
2022-12-09T17:10:31.450Z,6.70
2022-12-09T17:13:01.690Z,6.60
2022-12-09T17:15:33.423Z,7.20
2022-12-09T17:18:03.902Z,7.00
2022-12-09T17:20:40.161Z,2.87
2022-12-09T17:23:11.139Z,9.47
2022-12-09T17:25:40.381Z,9.97
2022-12-09T17:28:11.180Z,7.03
2022-12-09T17:30:42.199Z,9.07
2022-12-09T17:33:17.745Z,13.87
2022-12-09T17:35:49.603Z,8.27
2022-12-09T17:38:19.280Z,7.83
2022-12-09T17:41:08.286Z,8.27
2022-12-09T17:43:38.360Z,5.23
2022-12-09T17:46:15.891Z,6.80
2022-12-09T17:48:45.832Z,9.47
2022-12-09T17:51:20.531Z,10.00
2022-12-09T17:53:50.377Z,9.03
2022-12-09T17:56:23.207Z,8.07
2022-12-09T17:59:01.350Z,6.90
2022-12-09T18:01:34.707Z,5.83
2022-12-09T18:04:09.012Z,6.70
2022-12-09T18:06:44.364Z,10.00
2022-12-09T18:09:15.511Z,8.47
2022-12-09T18:11:45.968Z,6.60
2022-12-09T18:14:16.360Z,7.07
2022-12-09T18:16:49.424Z,7.90
2022-12-09T18:19:26.167Z,10.40
2022-12-09T18:21:58.585Z,8.90
2022-12-09T18:24:31.124Z,6.70
2022-12-09T18:27:00.827Z,8.67
2022-12-09T18:29:32.267Z,8.53
2022-12-09T18:32:01.621Z,6.77
2022-12-09T18:34:33.376Z,7.33
2022-12-09T18:37:05.492Z,7.60
2022-12-09T18:39:35.688Z,11.67
2022-12-09T18:42:15.295Z,10.67
2022-12-09T18:44:50.921Z,12.60
2022-12-09T18:47:20.881Z,6.63
2022-12-09T18:49:51.735Z,11.30
2022-12-09T18:52:22.824Z,13.30
2022-12-09T18:54:54.782Z,13.23
2022-12-09T18:57:30.383Z,20.10
2022-12-09T19:00:00.246Z,13.77
2022-12-09T19:02:32.509Z,15.80
2022-12-09T19:05:04.994Z,19.90
2022-12-09T19:07:38.829Z,14.93
2022-12-09T19:10:11.057Z,15.43
2022-12-09T19:12:56.548Z,14.30
2022-12-09T19:15:32.702Z,15.00
2022-12-09T19:18:04.704Z,17.00
2022-12-09T19:20:46.545Z,13.87
2022-12-09T19:23:34.859Z,16.87
2022-12-09T19:26:05.860Z,17.00
2022-12-09T19:28:39.345Z,15.27
2022-12-09T19:31:31.301Z,16.70
2022-12-09T19:34:11.028Z,16.90
2022-12-09T19:36:45.408Z,12.00
2022-12-09T19:39:17.028Z,14.20
2022-12-09T19:41:56.453Z,12.70
2022-12-09T19:44:52.447Z,15.73
2022-12-09T19:47:19.100Z,14.33
2022-12-09T19:49:52.122Z,15.30
2022-12-09T19:52:25.457Z,11.77
2022-12-09T19:55:09.937Z,13.60
2022-12-09T20:00:24.111Z,15.97
2022-12-09T20:02:55.481Z,12.93
2022-12-09T20:05:42.327Z,12.30
2022-12-09T20:08:18.486Z,10.53
2022-12-09T20:13:51.352Z,14.40
2022-12-09T20:16:28.820Z,12.80
2022-12-09T20:19:02.806Z,13.47
2022-12-09T20:21:34.043Z,12.57
2022-12-09T20:24:08.907Z,11.97
2022-12-09T20:26:46.156Z,12.37
2022-12-09T20:29:17.730Z,14.70
2022-12-09T20:31:49.840Z,13.40
2022-12-09T20:34:27.001Z,12.13
2022-12-09T20:37:00.439Z,15.43
2022-12-09T20:39:30.724Z,12.50
2022-12-09T20:42:07.889Z,9.80
2022-12-09T20:44:37.261Z,10.73
2022-12-09T20:47:12.838Z,9.10
2022-12-09T20:49:44.762Z,14.00
2022-12-09T20:52:19.505Z,12.97
2022-12-09T20:54:51.032Z,10.60
2022-12-09T20:57:42.451Z,10.83
2022-12-09T21:00:26.482Z,12.70
2022-12-09T21:03:19.037Z,12.57
2022-12-09T21:05:48.689Z,14.70
2022-12-09T21:08:35.247Z,15.53
2022-12-09T21:11:06.372Z,12.30
2022-12-09T21:14:01.667Z,13.83
2022-12-09T21:16:44.892Z,16.57
2022-12-09T21:19:17.452Z,11.50
2022-12-09T21:21:58.027Z,13.47
2022-12-09T21:24:27.370Z,12.50
2022-12-09T21:27:13.310Z,11.60
2022-12-09T21:29:45.953Z,12.50
2022-12-09T21:32:23.292Z,7.63
2022-12-09T21:34:59.862Z,8.90
2022-12-09T21:37:30.265Z,16.97
2022-12-09T21:40:07.876Z,7.57
2022-12-09T21:42:42.756Z,6.17
2022-12-09T21:45:32.806Z,11.40
2022-12-09T21:48:21.147Z,12.13
2022-12-09T21:50:58.927Z,14.67
2022-12-09T21:53:39.019Z,12.83
2022-12-09T22:34:47.217Z,9.47
2022-12-09T23:27:18.232Z,11.50
2022-12-09T23:35:47.349Z,5.87
